Weather reports worldwide

Advertisment
S. Giovanni Teatino, Italy (16231): temperature & dewpoint: 20.05.2019 00:00:00 - 26.05.2019 00:00:00 (CEST)S. Giovanni Teatino, Italy (16231): wind speed: 20.05.2019 00:00:00 - 26.05.2019 00:00:00 (CEST)S. Giovanni Teatino, Italy (16231): wind direction: 20.05.2019 00:00:00 - 26.05.2019 00:00:00 (CEST)S. Giovanni Teatino, Italy (16231): reduced air pressure: 20.05.2019 00:00:00 - 26.05.2019 00:00:00 (CEST)
Date & Time tt [°C] td [°C] ff [km/h] ff [kn] dd ppp [hPa]
26.05.2019 00:00:00 - - - - - -
25.05.2019 23:00:00 17,4 16,2 4 2 NE 1014,2
25.05.2019 22:00:00 - - - - - -
25.05.2019 21:00:00 - - - - - -
25.05.2019 20:00:00 18,1 13,3 9 5 E 1013,4
25.05.2019 19:00:00 - - - - - -
25.05.2019 18:00:00 19,0 13,8 18 10 ENE 1013,3
25.05.2019 17:00:00 19,2 15,8 28 15 E 1013,2
25.05.2019 16:00:00 19,5 16,7 28 15 ENE 1013,6
25.05.2019 15:00:00 21,4 16,7 28 15 E 1013,6
25.05.2019 14:00:00 21,0 16,7 18 10 ENE 1014,0
25.05.2019 13:00:00 21,7 15,9 16 9 ENE 1014,4
25.05.2019 12:00:00 21,7 16,8 9 5 ENE 1014,5
25.05.2019 11:00:00 21,6 16,3 13 7 ENE 1014,2
25.05.2019 10:00:00 21,2 17,5 2 1 ESE 1014,2
25.05.2019 09:00:00 19,3 16,6 4 2 W 1014,1
25.05.2019 08:00:00 18,3 15,8 4 2 S 1013,7
25.05.2019 07:00:00 17,0 15,5 4 2 SSW 1013,6
25.05.2019 06:00:00 16,1 14,7 5 3 SSW 1013,3
25.05.2019 05:00:00 15,9 14,5 8 4 S 1013,2
25.05.2019 04:00:00 16,1 14,4 5 3 SSW 1012,9
25.05.2019 03:00:00 16,6 15,2 5 3 SW 1012,8
25.05.2019 02:00:00 16,6 15,2 4 2 SSW 1013,1
25.05.2019 01:00:00 17,0 15,3 9 5 SW 1013,5
25.05.2019 00:00:00 17,6 15,7 4 2 SW 1013,6
24.05.2019 23:00:00 18,5 14,9 4 2 WSW 1013,3
24.05.2019 22:00:00 18,9 14,7 8 4 SSW 1013,2
24.05.2019 21:00:00 18,7 15,1 5 3 S 1012,5
24.05.2019 20:00:00 19,6 13,9 2 1 NNW 1012,6
24.05.2019 19:00:00 20,4 14,7 0 0 N 1012,4
24.05.2019 18:00:00 20,5 14,8 4 2 ENE 1012,4
24.05.2019 17:00:00 19,4 15,6 8 4 E 1012,9
24.05.2019 16:00:00 - - - - - -
24.05.2019 15:00:00 20,0 13,6 11 6 NE 1013,2
24.05.2019 14:00:00 21,2 15,0 4 2 NE 1013,1
24.05.2019 13:00:00 21,6 15,1 11 6 NE 1013,3
24.05.2019 12:00:00 21,1 13,9 15 8 NE 1013,8
24.05.2019 11:00:00 21,8 15,1 13 7 NNE 1013,7
24.05.2019 10:00:00 20,1 13,7 4 2 WSW 1014,0
24.05.2019 09:00:00 18,3 13,5 4 2 SW 1014,2
24.05.2019 08:00:00 17,1 13,0 5 3 SSW 1014,3
24.05.2019 07:00:00 15,9 12,0 9 5 SSW 1014,3
24.05.2019 06:00:00 15,1 11,6 9 5 SSW 1014,1
24.05.2019 05:00:00 15,5 11,6 8 4 SSW 1014,0
24.05.2019 04:00:00 15,8 11,7 9 5 SSW 1014,1
24.05.2019 03:00:00 16,1 12,2 9 5 SSW 1014,4
24.05.2019 02:00:00 15,9 12,9 13 7 SSW 1014,7
24.05.2019 01:00:00 15,5 13,1 5 3 SW 1015,1
24.05.2019 00:00:00 15,2 12,7 13 7 SW 1015,0
23.05.2019 23:00:00 16,8 12,7 5 3 SSW 1014,9
23.05.2019 22:00:00 17,0 13,1 4 2 S 1015,1
23.05.2019 21:00:00 17,4 13,0 4 2 SW 1015,0
23.05.2019 20:00:00 18,6 14,4 2 1 WNW 1015,0
23.05.2019 19:00:00 19,4 13,9 4 2 NNW 1014,5
23.05.2019 18:00:00 20,7 12,8 8 4 N 1014,7
23.05.2019 17:00:00 20,7 13,6 4 2 NNE 1014,4
23.05.2019 16:00:00 20,7 13,3 11 6 NE 1014,3
23.05.2019 15:00:00 20,3 13,4 9 5 ENE 1014,8
23.05.2019 14:00:00 20,8 14,6 11 6 NE 1015,1
23.05.2019 13:00:00 21,1 12,9 5 3 N 1015,6
23.05.2019 12:00:00 21,0 13,6 8 4 N 1016,1
23.05.2019 11:00:00 20,5 12,7 5 3 NNW 1016,1
23.05.2019 10:00:00 19,1 14,5 2 1 WNW 1016,2
23.05.2019 09:00:00 16,8 13,8 2 1 WSW 1016,3
23.05.2019 08:00:00 15,4 13,2 5 3 SW 1015,7
23.05.2019 07:00:00 14,8 12,9 5 3 SW 1015,4
23.05.2019 06:00:00 13,6 12,0 11 6 S 1015,2
23.05.2019 05:00:00 14,4 12,1 2 1 SSE 1015,2
23.05.2019 04:00:00 14,9 12,2 5 3 SSW 1015,6
23.05.2019 03:00:00 14,9 12,7 15 8 SW 1015,7
23.05.2019 02:00:00 15,2 13,3 8 4 SW 1015,9
23.05.2019 01:00:00 14,9 13,0 8 4 SW 1015,9
23.05.2019 00:00:00 15,6 13,0 9 5 WSW 1016,2
22.05.2019 23:00:00 16,2 14,3 8 4 WSW 1016,3
22.05.2019 22:00:00 16,4 13,4 0 0 N 1015,9
22.05.2019 21:00:00 16,5 14,1 2 1 E 1015,6
22.05.2019 20:00:00 16,7 14,1 5 3 NE 1015,0
22.05.2019 19:00:00 17,7 12,9 13 7 ENE 1014,2
22.05.2019 18:00:00 18,9 12,8 16 9 ENE 1014,3
22.05.2019 17:00:00 19,2 12,4 18 10 ENE 1014,1
22.05.2019 16:00:00 19,6 12,6 24 13 ENE 1014,5
22.05.2019 15:00:00 19,5 12,7 22 12 NE 1014,6
22.05.2019 14:00:00 19,7 12,8 22 12 ENE 1014,8
22.05.2019 13:00:00 19,9 13,3 22 12 ENE 1015,1
22.05.2019 12:00:00 19,5 13,1 15 8 ENE 1015,1
22.05.2019 11:00:00 20,0 13,1 16 9 NNE 1015,1
22.05.2019 10:00:00 17,7 11,9 5 3 W 1015,1
22.05.2019 09:00:00 16,8 10,6 11 6 W 1014,9
22.05.2019 08:00:00 16,6 9,9 16 9 WSW 1014,5
22.05.2019 07:00:00 16,7 9,3 29 16 SSW 1014,2
22.05.2019 06:00:00 16,6 9,5 18 10 SSW 1013,7
22.05.2019 05:00:00 16,5 9,4 28 15 SSW 1013,7
22.05.2019 04:00:00 16,5 9,6 34 18 ESE 1013,7
22.05.2019 03:00:00 16,7 9,6 29 16 SSW 1013,7
22.05.2019 02:00:00 16,7 9,6 28 15 SSW 1013,5
22.05.2019 01:00:00 17,0 9,4 26 14 S 1013,5
22.05.2019 00:00:00 17,5 9,3 21 11 S 1013,4
21.05.2019 23:00:00 17,7 9,8 28 15 S 1013,3
21.05.2019 22:00:00 18,2 10,0 28 15 S 1013,3
21.05.2019 21:00:00 18,7 10,2 13 7 S 1012,4
21.05.2019 20:00:00 19,8 10,7 24 13 SSW 1011,9
21.05.2019 19:00:00 20,7 11,0 22 12 S 1011,8
21.05.2019 18:00:00 22,0 13,3 5 3 SW 1011,7
21.05.2019 17:00:00 21,5 12,8 8 4 SSW 1011,5
21.05.2019 16:00:00 20,3 11,7 11 6 S 1011,7
21.05.2019 15:00:00 21,5 12,6 9 5 ENE 1011,4
21.05.2019 14:00:00 21,1 13,2 8 4 NNW 1011,2
21.05.2019 13:00:00 21,7 13,2 5 3 S 1010,8
21.05.2019 12:00:00 20,3 13,2 13 7 SW 1010,8
21.05.2019 11:00:00 19,9 12,4 4 2 SSW 1010,4
21.05.2019 10:00:00 18,5 11,5 16 9 N 1010,1
21.05.2019 09:00:00 17,1 10,2 13 7 SSW 1009,9
21.05.2019 08:00:00 16,1 11,0 5 3 SW 1009,6
21.05.2019 07:00:00 14,1 8,7 9 5 WSW 1009,5
21.05.2019 06:00:00 14,9 8,3 13 7 SSW 1009,1
21.05.2019 05:00:00 15,1 8,3 8 4 SSW 1009,0
21.05.2019 04:00:00 15,3 8,0 24 13 SSW 1009,2
21.05.2019 03:00:00 15,1 7,6 13 7 SSW 1009,5
21.05.2019 02:00:00 15,0 7,2 21 11 SSW 1009,6
21.05.2019 01:00:00 15,5 7,7 21 11 SSE 1009,7
21.05.2019 00:00:00 15,6 7,8 21 11 S 1009,6
20.05.2019 23:00:00 15,6 7,5 22 12 SSW 1009,5
20.05.2019 22:00:00 15,8 7,7 29 16 S 1009,1
20.05.2019 21:00:00 16,2 7,6 15 8 SSW 1008,4
20.05.2019 20:00:00 17,2 7,5 15 8 SSW 1008,2
20.05.2019 19:00:00 17,9 8,4 11 6 SSW 1007,7
20.05.2019 18:00:00 18,7 8,3 31 17 SSW 1007,6
20.05.2019 17:00:00 18,9 9,3 13 7 SSW 1008,1
20.05.2019 16:00:00 18,2 8,7 28 15 SE 1008,4
20.05.2019 15:00:00 18,6 8,8 41 22 SSW 1007,9
20.05.2019 14:00:00 21,4 9,6 11 6 WSW 1007,2
20.05.2019 13:00:00 20,1 9,0 9 5 SSW 1007,5
20.05.2019 12:00:00 19,6 8,5 16 9 S 1007,7
20.05.2019 11:00:00 18,9 9,6 8 4 SSW 1007,3
20.05.2019 10:00:00 17,6 8,7 15 8 S 1006,9
20.05.2019 09:00:00 16,9 8,0 24 13 S 1006,6
20.05.2019 08:00:00 14,8 8,0 28 15 SSW 1006,6
20.05.2019 07:00:00 14,3 6,8 16 9 SSW 1006,4
20.05.2019 06:00:00 14,1 7,8 24 13 SSW 1006,0
20.05.2019 05:00:00 14,6 7,3 18 10 SSW 1005,8
20.05.2019 04:00:00 14,5 7,5 16 9 S 1006,0
20.05.2019 03:00:00 14,9 7,1 26 14 SSW 1005,9
20.05.2019 02:00:00 14,6 7,6 29 16 S 1006,1
20.05.2019 01:00:00 - - - - - -
20.05.2019 00:00:00 15,1 8,0 31 17 SSW 1005,9

tt = temperature
td = dewpoint
ff = wind speed
dd = wind direction
ppp = reduced air pressure

Next stations